sensor_id;sensor_type;location;lat;lon;timestamp;P1;durP1;ratioP1;P2;durP2;ratioP2
7841;SDS011;3966;51.052;13.820;2023-08-17T00:01:34;0.00;;;0.00;;
7841;SDS011;3966;51.052;13.820;2023-08-17T00:04:00;0.10;;;0.10;;
7841;SDS011;3966;51.052;13.820;2023-08-17T00:06:25;0.10;;;0.10;;
7841;SDS011;3966;51.052;13.820;2023-08-17T00:08:51;0.00;;;0.00;;
7841;SDS011;3966;51.052;13.820;2023-08-17T00:11:16;0.10;;;0.10;;
7841;SDS011;3966;51.052;13.820;2023-08-17T00:13:42;0.10;;;0.10;;
7841;SDS011;3966;51.052;13.820;2023-08-17T00:16:08;0.10;;;0.10;;
7841;SDS011;3966;51.052;13.820;2023-08-17T00:18:33;0.10;;;0.10;;
7841;SDS011;3966;51.052;13.820;2023-08-17T00:20:59;0.10;;;0.10;;
7841;SDS011;3966;51.052;13.820;2023-08-17T00:23:25;0.10;;;0.10;;
7841;SDS011;3966;51.052;13.820;2023-08-17T00:25:50;0.00;;;0.00;;
7841;SDS011;3966;51.052;13.820;2023-08-17T00:28:16;0.10;;;0.10;;
7841;SDS011;3966;51.052;13.820;2023-08-17T00:30:41;0.10;;;0.10;;
7841;SDS011;3966;51.052;13.820;2023-08-17T00:33:07;0.10;;;0.10;;
7841;SDS011;3966;51.052;13.820;2023-08-17T00:35:33;0.10;;;0.10;;
7841;SDS011;3966;51.052;13.820;2023-08-17T00:37:59;0.00;;;0.00;;
7841;SDS011;3966;51.052;13.820;2023-08-17T00:40:25;0.00;;;0.00;;
7841;SDS011;3966;51.052;13.820;2023-08-17T00:42:50;0.10;;;0.10;;
7841;SDS011;3966;51.052;13.820;2023-08-17T00:45:17;0.10;;;0.10;;
7841;SDS011;3966;51.052;13.820;2023-08-17T00:47:43;0.00;;;0.00;;
7841;SDS011;3966;51.052;13.820;2023-08-17T00:50:09;0.10;;;0.10;;
7841;SDS011;3966;51.052;13.820;2023-08-17T00:52:36;0.10;;;0.10;;
7841;SDS011;3966;51.052;13.820;2023-08-17T00:55:03;0.10;;;0.10;;
7841;SDS011;3966;51.052;13.820;2023-08-17T00:57:31;0.00;;;0.00;;
7841;SDS011;3966;51.052;13.820;2023-08-17T00:59:57;0.03;;;0.03;;
7841;SDS011;3966;51.052;13.820;2023-08-17T01:02:24;0.10;;;0.10;;
7841;SDS011;3966;51.052;13.820;2023-08-17T01:04:50;0.10;;;0.10;;
7841;SDS011;3966;51.052;13.820;2023-08-17T01:07:15;0.10;;;0.10;;
7841;SDS011;3966;51.052;13.820;2023-08-17T01:09:41;0.10;;;0.10;;
7841;SDS011;3966;51.052;13.820;2023-08-17T01:12:17;0.00;;;0.00;;
7841;SDS011;3966;51.052;13.820;2023-08-17T01:14:59;0.00;;;0.00;;
7841;SDS011;3966;51.052;13.820;2023-08-17T01:17:35;0.10;;;0.10;;
7841;SDS011;3966;51.052;13.820;2023-08-17T01:20:07;0.10;;;0.10;;
7841;SDS011;3966;51.052;13.820;2023-08-17T01:22:37;0.00;;;0.00;;
7841;SDS011;3966;51.052;13.820;2023-08-17T01:25:09;0.10;;;0.10;;
7841;SDS011;3966;51.052;13.820;2023-08-17T01:27:40;0.00;;;0.00;;
7841;SDS011;3966;51.052;13.820;2023-08-17T01:30:07;0.10;;;0.10;;
7841;SDS011;3966;51.052;13.820;2023-08-17T01:32:39;0.10;;;0.10;;
7841;SDS011;3966;51.052;13.820;2023-08-17T01:35:34;0.00;;;0.00;;
7841;SDS011;3966;51.052;13.820;2023-08-17T01:38:19;0.10;;;0.10;;
7841;SDS011;3966;51.052;13.820;2023-08-17T01:40:48;0.00;;;0.00;;
7841;SDS011;3966;51.052;13.820;2023-08-17T01:43:16;0.10;;;0.10;;
7841;SDS011;3966;51.052;13.820;2023-08-17T01:45:42;0.10;;;0.10;;
7841;SDS011;3966;51.052;13.820;2023-08-17T01:48:08;0.10;;;0.10;;
7841;SDS011;3966;51.052;13.820;2023-08-17T01:50:33;0.10;;;0.10;;
7841;SDS011;3966;51.052;13.820;2023-08-17T01:52:59;0.10;;;0.10;;
7841;SDS011;3966;51.052;13.820;2023-08-17T01:55:24;0.00;;;0.00;;
7841;SDS011;3966;51.052;13.820;2023-08-17T01:57:51;0.00;;;0.00;;
7841;SDS011;3966;51.052;13.820;2023-08-17T02:00:17;0.10;;;0.10;;
7841;SDS011;3966;51.052;13.820;2023-08-17T02:02:43;0.10;;;0.10;;
7841;SDS011;3966;51.052;13.820;2023-08-17T02:05:09;0.10;;;0.10;;
7841;SDS011;3966;51.052;13.820;2023-08-17T02:07:34;0.00;;;0.00;;
7841;SDS011;3966;51.052;13.820;2023-08-17T02:10:00;0.00;;;0.00;;
7841;SDS011;3966;51.052;13.820;2023-08-17T02:12:25;0.10;;;0.10;;
7841;SDS011;3966;51.052;13.820;2023-08-17T02:14:51;0.00;;;0.00;;
7841;SDS011;3966;51.052;13.820;2023-08-17T02:17:17;0.00;;;0.00;;
7841;SDS011;3966;51.052;13.820;2023-08-17T02:19:44;0.00;;;0.00;;
7841;SDS011;3966;51.052;13.820;2023-08-17T02:22:10;0.00;;;0.00;;
7841;SDS011;3966;51.052;13.820;2023-08-17T02:24:35;0.00;;;0.00;;
7841;SDS011;3966;51.052;13.820;2023-08-17T02:27:01;0.10;;;0.10;;
7841;SDS011;3966;51.052;13.820;2023-08-17T02:29:27;0.10;;;0.10;;
7841;SDS011;3966;51.052;13.820;2023-08-17T02:31:53;0.08;;;0.08;;
7841;SDS011;3966;51.052;13.820;2023-08-17T02:34:18;0.00;;;0.00;;
7841;SDS011;3966;51.052;13.820;2023-08-17T02:36:44;0.10;;;0.10;;
7841;SDS011;3966;51.052;13.820;2023-08-17T02:39:10;0.10;;;0.10;;
7841;SDS011;3966;51.052;13.820;2023-08-17T02:41:35;0.00;;;0.00;;
7841;SDS011;3966;51.052;13.820;2023-08-17T02:44:01;0.00;;;0.00;;
7841;SDS011;3966;51.052;13.820;2023-08-17T02:46:27;0.00;;;0.00;;
7841;SDS011;3966;51.052;13.820;2023-08-17T02:48:53;0.10;;;0.10;;
7841;SDS011;3966;51.052;13.820;2023-08-17T02:51:18;0.10;;;0.10;;
7841;SDS011;3966;51.052;13.820;2023-08-17T02:53:44;0.00;;;0.00;;
7841;SDS011;3966;51.052;13.820;2023-08-17T02:56:10;0.00;;;0.00;;
7841;SDS011;3966;51.052;13.820;2023-08-17T02:58:37;0.00;;;0.00;;
7841;SDS011;3966;51.052;13.820;2023-08-17T03:01:09;0.00;;;0.00;;
7841;SDS011;3966;51.052;13.820;2023-08-17T03:03:35;0.00;;;0.00;;
7841;SDS011;3966;51.052;13.820;2023-08-17T03:06:01;0.00;;;0.00;;
7841;SDS011;3966;51.052;13.820;2023-08-17T03:08:27;0.00;;;0.00;;
7841;SDS011;3966;51.052;13.820;2023-08-17T03:10:53;0.10;;;0.10;;
7841;SDS011;3966;51.052;13.820;2023-08-17T03:13:19;0.00;;;0.00;;
7841;SDS011;3966;51.052;13.820;2023-08-17T03:15:45;0.10;;;0.10;;
7841;SDS011;3966;51.052;13.820;2023-08-17T03:18:11;0.00;;;0.00;;
7841;SDS011;3966;51.052;13.820;2023-08-17T03:20:36;0.10;;;0.10;;
7841;SDS011;3966;51.052;13.820;2023-08-17T03:23:02;0.10;;;0.10;;
7841;SDS011;3966;51.052;13.820;2023-08-17T03:25:31;0.10;;;0.10;;
7841;SDS011;3966;51.052;13.820;2023-08-17T03:27:57;0.10;;;0.10;;
7841;SDS011;3966;51.052;13.820;2023-08-17T03:30:22;0.00;;;0.00;;
7841;SDS011;3966;51.052;13.820;2023-08-17T03:32:48;0.00;;;0.00;;
7841;SDS011;3966;51.052;13.820;2023-08-17T03:35:14;0.00;;;0.00;;
7841;SDS011;3966;51.052;13.820;2023-08-17T03:37:39;0.10;;;0.10;;
7841;SDS011;3966;51.052;13.820;2023-08-17T03:40:05;0.10;;;0.10;;
7841;SDS011;3966;51.052;13.820;2023-08-17T03:42:31;0.10;;;0.10;;
7841;SDS011;3966;51.052;13.820;2023-08-17T03:44:57;0.10;;;0.10;;
7841;SDS011;3966;51.052;13.820;2023-08-17T03:47:22;0.00;;;0.00;;
7841;SDS011;3966;51.052;13.820;2023-08-17T03:49:48;0.10;;;0.10;;
7841;SDS011;3966;51.052;13.820;2023-08-17T03:52:14;0.10;;;0.10;;
7841;SDS011;3966;51.052;13.820;2023-08-17T03:54:39;0.10;;;0.10;;
7841;SDS011;3966;51.052;13.820;2023-08-17T03:57:05;0.00;;;0.00;;
7841;SDS011;3966;51.052;13.820;2023-08-17T03:59:31;0.00;;;0.00;;
7841;SDS011;3966;51.052;13.820;2023-08-17T04:01:56;0.10;;;0.10;;
7841;SDS011;3966;51.052;13.820;2023-08-17T04:04:22;0.00;;;0.00;;
7841;SDS011;3966;51.052;13.820;2023-08-17T04:06:47;0.08;;;0.08;;
7841;SDS011;3966;51.052;13.820;2023-08-17T04:09:13;0.00;;;0.00;;
7841;SDS011;3966;51.052;13.820;2023-08-17T04:11:39;0.10;;;0.10;;
7841;SDS011;3966;51.052;13.820;2023-08-17T04:14:04;0.00;;;0.00;;
7841;SDS011;3966;51.052;13.820;2023-08-17T04:16:30;0.10;;;0.10;;
7841;SDS011;3966;51.052;13.820;2023-08-17T04:18:55;0.00;;;0.00;;
7841;SDS011;3966;51.052;13.820;2023-08-17T04:21:21;0.10;;;0.10;;
7841;SDS011;3966;51.052;13.820;2023-08-17T04:23:47;0.00;;;0.00;;
7841;SDS011;3966;51.052;13.820;2023-08-17T04:26:12;0.00;;;0.00;;
7841;SDS011;3966;51.052;13.820;2023-08-17T04:28:38;0.00;;;0.00;;
7841;SDS011;3966;51.052;13.820;2023-08-17T04:31:04;0.10;;;0.10;;
7841;SDS011;3966;51.052;13.820;2023-08-17T04:33:30;0.00;;;0.00;;
7841;SDS011;3966;51.052;13.820;2023-08-17T04:35:55;0.10;;;0.10;;
7841;SDS011;3966;51.052;13.820;2023-08-17T04:38:21;0.10;;;0.10;;
7841;SDS011;3966;51.052;13.820;2023-08-17T04:40:46;0.00;;;0.00;;
7841;SDS011;3966;51.052;13.820;2023-08-17T04:43:12;0.00;;;0.00;;
7841;SDS011;3966;51.052;13.820;2023-08-17T04:45:38;0.00;;;0.00;;
7841;SDS011;3966;51.052;13.820;2023-08-17T04:48:05;0.10;;;0.10;;
7841;SDS011;3966;51.052;13.820;2023-08-17T04:50:31;0.10;;;0.10;;
7841;SDS011;3966;51.052;13.820;2023-08-17T04:52:57;0.05;;;0.05;;
7841;SDS011;3966;51.052;13.820;2023-08-17T04:55:23;0.00;;;0.00;;
7841;SDS011;3966;51.052;13.820;2023-08-17T04:57:48;0.00;;;0.00;;
7841;SDS011;3966;51.052;13.820;2023-08-17T05:00:14;0.00;;;0.00;;
7841;SDS011;3966;51.052;13.820;2023-08-17T05:02:41;0.00;;;0.00;;
7841;SDS011;3966;51.052;13.820;2023-08-17T05:05:07;0.00;;;0.00;;
7841;SDS011;3966;51.052;13.820;2023-08-17T05:07:35;0.00;;;0.00;;
7841;SDS011;3966;51.052;13.820;2023-08-17T05:10:00;0.00;;;0.00;;
7841;SDS011;3966;51.052;13.820;2023-08-17T05:12:27;0.10;;;0.10;;
7841;SDS011;3966;51.052;13.820;2023-08-17T05:14:52;0.00;;;0.00;;
7841;SDS011;3966;51.052;13.820;2023-08-17T05:17:18;0.10;;;0.10;;
7841;SDS011;3966;51.052;13.820;2023-08-17T05:19:44;0.00;;;0.00;;
7841;SDS011;3966;51.052;13.820;2023-08-17T05:22:10;0.00;;;0.00;;
7841;SDS011;3966;51.052;13.820;2023-08-17T05:24:37;0.00;;;0.00;;
7841;SDS011;3966;51.052;13.820;2023-08-17T05:27:03;0.00;;;0.00;;
7841;SDS011;3966;51.052;13.820;2023-08-17T05:29:29;0.00;;;0.00;;
7841;SDS011;3966;51.052;13.820;2023-08-17T05:31:57;0.00;;;0.00;;
7841;SDS011;3966;51.052;13.820;2023-08-17T05:34:23;0.10;;;0.10;;
7841;SDS011;3966;51.052;13.820;2023-08-17T05:36:48;0.10;;;0.10;;
7841;SDS011;3966;51.052;13.820;2023-08-17T05:39:14;0.00;;;0.00;;
7841;SDS011;3966;51.052;13.820;2023-08-17T05:41:40;0.00;;;0.00;;
7841;SDS011;3966;51.052;13.820;2023-08-17T05:44:05;0.10;;;0.10;;
7841;SDS011;3966;51.052;13.820;2023-08-17T05:46:34;0.00;;;0.00;;
7841;SDS011;3966;51.052;13.820;2023-08-17T05:49:01;0.00;;;0.00;;
7841;SDS011;3966;51.052;13.820;2023-08-17T05:51:27;0.00;;;0.00;;
7841;SDS011;3966;51.052;13.820;2023-08-17T05:53:53;0.10;;;0.10;;
7841;SDS011;3966;51.052;13.820;2023-08-17T05:56:18;0.00;;;0.00;;
7841;SDS011;3966;51.052;13.820;2023-08-17T05:58:44;0.00;;;0.00;;
7841;SDS011;3966;51.052;13.820;2023-08-17T06:01:10;0.10;;;0.10;;
7841;SDS011;3966;51.052;13.820;2023-08-17T06:03:36;0.10;;;0.10;;
7841;SDS011;3966;51.052;13.820;2023-08-17T06:06:03;0.10;;;0.10;;
7841;SDS011;3966;51.052;13.820;2023-08-17T06:08:30;0.00;;;0.00;;
7841;SDS011;3966;51.052;13.820;2023-08-17T06:10:56;0.00;;;0.00;;
7841;SDS011;3966;51.052;13.820;2023-08-17T06:13:22;0.00;;;0.00;;
7841;SDS011;3966;51.052;13.820;2023-08-17T06:15:47;0.00;;;0.00;;
7841;SDS011;3966;51.052;13.820;2023-08-17T06:18:13;0.10;;;0.10;;
7841;SDS011;3966;51.052;13.820;2023-08-17T06:20:39;0.00;;;0.00;;
7841;SDS011;3966;51.052;13.820;2023-08-17T06:23:04;0.10;;;0.10;;
7841;SDS011;3966;51.052;13.820;2023-08-17T06:25:30;0.10;;;0.10;;
7841;SDS011;3966;51.052;13.820;2023-08-17T06:27:56;0.00;;;0.00;;
7841;SDS011;3966;51.052;13.820;2023-08-17T06:30:21;0.10;;;0.10;;
7841;SDS011;3966;51.052;13.820;2023-08-17T06:32:47;0.00;;;0.00;;
7841;SDS011;3966;51.052;13.820;2023-08-17T06:35:13;0.10;;;0.10;;
7841;SDS011;3966;51.052;13.820;2023-08-17T06:37:38;0.00;;;0.00;;
7841;SDS011;3966;51.052;13.820;2023-08-17T06:40:04;0.10;;;0.10;;
7841;SDS011;3966;51.052;13.820;2023-08-17T06:42:31;0.00;;;0.00;;
7841;SDS011;3966;51.052;13.820;2023-08-17T06:44:57;0.10;;;0.10;;
7841;SDS011;3966;51.052;13.820;2023-08-17T06:47:22;0.10;;;0.10;;
7841;SDS011;3966;51.052;13.820;2023-08-17T06:49:48;0.00;;;0.00;;
7841;SDS011;3966;51.052;13.820;2023-08-17T06:52:14;0.00;;;0.00;;
7841;SDS011;3966;51.052;13.820;2023-08-17T06:54:39;0.00;;;0.00;;
7841;SDS011;3966;51.052;13.820;2023-08-17T06:57:05;0.10;;;0.10;;
7841;SDS011;3966;51.052;13.820;2023-08-17T06:59:31;0.00;;;0.00;;
7841;SDS011;3966;51.052;13.820;2023-08-17T07:01:58;0.10;;;0.10;;
7841;SDS011;3966;51.052;13.820;2023-08-17T07:04:24;0.05;;;0.05;;
7841;SDS011;3966;51.052;13.820;2023-08-17T07:06:50;0.10;;;0.10;;
7841;SDS011;3966;51.052;13.820;2023-08-17T07:09:15;0.10;;;0.10;;
7841;SDS011;3966;51.052;13.820;2023-08-17T07:11:41;0.10;;;0.10;;
7841;SDS011;3966;51.052;13.820;2023-08-17T07:14:07;0.00;;;0.00;;
7841;SDS011;3966;51.052;13.820;2023-08-17T07:16:32;0.08;;;0.08;;
7841;SDS011;3966;51.052;13.820;2023-08-17T07:18:58;0.10;;;0.10;;
7841;SDS011;3966;51.052;13.820;2023-08-17T07:21:24;0.00;;;0.00;;
7841;SDS011;3966;51.052;13.820;2023-08-17T07:23:50;0.00;;;0.00;;
7841;SDS011;3966;51.052;13.820;2023-08-17T07:26:16;0.10;;;0.10;;
7841;SDS011;3966;51.052;13.820;2023-08-17T07:28:44;0.10;;;0.10;;
7841;SDS011;3966;51.052;13.820;2023-08-17T07:31:10;0.10;;;0.10;;
7841;SDS011;3966;51.052;13.820;2023-08-17T07:33:36;0.00;;;0.00;;
7841;SDS011;3966;51.052;13.820;2023-08-17T07:36:02;0.10;;;0.10;;
7841;SDS011;3966;51.052;13.820;2023-08-17T07:38:28;0.10;;;0.10;;
7841;SDS011;3966;51.052;13.820;2023-08-17T07:40:54;0.10;;;0.10;;
7841;SDS011;3966;51.052;13.820;2023-08-17T07:43:20;0.10;;;0.10;;
7841;SDS011;3966;51.052;13.820;2023-08-17T07:45:46;0.00;;;0.00;;
7841;SDS011;3966;51.052;13.820;2023-08-17T07:48:17;0.00;;;0.00;;
7841;SDS011;3966;51.052;13.820;2023-08-17T07:50:43;0.10;;;0.10;;
7841;SDS011;3966;51.052;13.820;2023-08-17T07:53:12;0.10;;;0.10;;
7841;SDS011;3966;51.052;13.820;2023-08-17T07:55:38;0.00;;;0.00;;
7841;SDS011;3966;51.052;13.820;2023-08-17T07:58:04;0.10;;;0.10;;
7841;SDS011;3966;51.052;13.820;2023-08-17T08:00:31;0.00;;;0.00;;
7841;SDS011;3966;51.052;13.820;2023-08-17T08:02:57;0.10;;;0.10;;
7841;SDS011;3966;51.052;13.820;2023-08-17T08:05:23;0.10;;;0.10;;
7841;SDS011;3966;51.052;13.820;2023-08-17T08:07:48;0.10;;;0.10;;
7841;SDS011;3966;51.052;13.820;2023-08-17T08:10:14;0.10;;;0.10;;
7841;SDS011;3966;51.052;13.820;2023-08-17T08:12:40;0.00;;;0.00;;
7841;SDS011;3966;51.052;13.820;2023-08-17T08:15:06;0.10;;;0.10;;
7841;SDS011;3966;51.052;13.820;2023-08-17T08:17:32;0.10;;;0.10;;
7841;SDS011;3966;51.052;13.820;2023-08-17T08:19:58;0.10;;;0.10;;
7841;SDS011;3966;51.052;13.820;2023-08-17T08:22:24;0.10;;;0.10;;
7841;SDS011;3966;51.052;13.820;2023-08-17T08:24:50;0.10;;;0.10;;
7841;SDS011;3966;51.052;13.820;2023-08-17T08:27:16;0.10;;;0.10;;
7841;SDS011;3966;51.052;13.820;2023-08-17T08:29:41;0.10;;;0.10;;
7841;SDS011;3966;51.052;13.820;2023-08-17T08:32:07;0.10;;;0.10;;
7841;SDS011;3966;51.052;13.820;2023-08-17T08:34:33;0.10;;;0.10;;
7841;SDS011;3966;51.052;13.820;2023-08-17T08:36:58;0.10;;;0.10;;
7841;SDS011;3966;51.052;13.820;2023-08-17T08:39:27;0.10;;;0.10;;
7841;SDS011;3966;51.052;13.820;2023-08-17T08:41:53;0.10;;;0.10;;
7841;SDS011;3966;51.052;13.820;2023-08-17T08:44:19;0.10;;;0.10;;
7841;SDS011;3966;51.052;13.820;2023-08-17T08:46:45;0.10;;;0.10;;
7841;SDS011;3966;51.052;13.820;2023-08-17T08:49:11;0.10;;;0.10;;
7841;SDS011;3966;51.052;13.820;2023-08-17T08:51:38;0.10;;;0.10;;
7841;SDS011;3966;51.052;13.820;2023-08-17T08:54:10;0.10;;;0.10;;
7841;SDS011;3966;51.052;13.820;2023-08-17T08:56:38;0.10;;;0.10;;
7841;SDS011;3966;51.052;13.820;2023-08-17T08:59:08;0.10;;;0.10;;
7841;SDS011;3966;51.052;13.820;2023-08-17T09:01:35;0.10;;;0.10;;
7841;SDS011;3966;51.052;13.820;2023-08-17T09:04:01;0.10;;;0.10;;
7841;SDS011;3966;51.052;13.820;2023-08-17T09:06:29;0.10;;;0.10;;
7841;SDS011;3966;51.052;13.820;2023-08-17T09:08:56;0.10;;;0.10;;
7841;SDS011;3966;51.052;13.820;2023-08-17T09:11:23;0.10;;;0.10;;
7841;SDS011;3966;51.052;13.820;2023-08-17T09:13:49;0.10;;;0.10;;
7841;SDS011;3966;51.052;13.820;2023-08-17T09:16:15;0.10;;;0.10;;
7841;SDS011;3966;51.052;13.820;2023-08-17T09:18:40;0.10;;;0.10;;
7841;SDS011;3966;51.052;13.820;2023-08-17T09:21:06;0.10;;;0.10;;
7841;SDS011;3966;51.052;13.820;2023-08-17T09:23:32;0.10;;;0.10;;
7841;SDS011;3966;51.052;13.820;2023-08-17T09:25:58;0.10;;;0.10;;
7841;SDS011;3966;51.052;13.820;2023-08-17T09:28:33;0.10;;;0.10;;
7841;SDS011;3966;51.052;13.820;2023-08-17T09:31:05;0.10;;;0.10;;
7841;SDS011;3966;51.052;13.820;2023-08-17T09:33:30;0.10;;;0.10;;
7841;SDS011;3966;51.052;13.820;2023-08-17T09:35:57;0.10;;;0.10;;
7841;SDS011;3966;51.052;13.820;2023-08-17T09:38:24;0.10;;;0.10;;
7841;SDS011;3966;51.052;13.820;2023-08-17T09:40:50;0.10;;;0.10;;
7841;SDS011;3966;51.052;13.820;2023-08-17T09:43:17;0.10;;;0.10;;
7841;SDS011;3966;51.052;13.820;2023-08-17T09:45:44;0.10;;;0.10;;
7841;SDS011;3966;51.052;13.820;2023-08-17T09:48:13;0.10;;;0.10;;
7841;SDS011;3966;51.052;13.820;2023-08-17T09:50:41;0.10;;;0.10;;
7841;SDS011;3966;51.052;13.820;2023-08-17T09:53:11;0.10;;;0.10;;
7841;SDS011;3966;51.052;13.820;2023-08-17T09:55:42;0.10;;;0.10;;
7841;SDS011;3966;51.052;13.820;2023-08-17T09:58:09;0.10;;;0.10;;
7841;SDS011;3966;51.052;13.820;2023-08-17T10:00:35;0.10;;;0.10;;
7841;SDS011;3966;51.052;13.820;2023-08-17T10:03:03;0.10;;;0.10;;
7841;SDS011;3966;51.052;13.820;2023-08-17T10:05:30;0.10;;;0.10;;
7841;SDS011;3966;51.052;13.820;2023-08-17T10:08:00;0.10;;;0.10;;
7841;SDS011;3966;51.052;13.820;2023-08-17T10:10:28;0.10;;;0.10;;
7841;SDS011;3966;51.052;13.820;2023-08-17T10:15:36;0.10;;;0.10;;
7841;SDS011;3966;51.052;13.820;2023-08-17T10:18:17;0.10;;;0.10;;
7841;SDS011;3966;51.052;13.820;2023-08-17T10:21:05;0.10;;;0.10;;
7841;SDS011;3966;51.052;13.820;2023-08-17T10:23:35;0.20;;;0.20;;
7841;SDS011;3966;51.052;13.820;2023-08-17T10:26:02;0.10;;;0.10;;
7841;SDS011;3966;51.052;13.820;2023-08-17T10:28:29;0.10;;;0.10;;
7841;SDS011;3966;51.052;13.820;2023-08-17T10:30:57;0.10;;;0.10;;
7841;SDS011;3966;51.052;13.820;2023-08-17T10:33:23;0.10;;;0.10;;
7841;SDS011;3966;51.052;13.820;2023-08-17T10:35:50;0.13;;;0.13;;
7841;SDS011;3966;51.052;13.820;2023-08-17T10:38:16;0.20;;;0.20;;
7841;SDS011;3966;51.052;13.820;2023-08-17T10:40:43;0.10;;;0.10;;
7841;SDS011;3966;51.052;13.820;2023-08-17T10:43:08;0.10;;;0.10;;
7841;SDS011;3966;51.052;13.820;2023-08-17T10:45:36;0.10;;;0.10;;
7841;SDS011;3966;51.052;13.820;2023-08-17T10:50:32;0.10;;;0.10;;
7841;SDS011;3966;51.052;13.820;2023-08-17T10:53:09;0.10;;;0.10;;
7841;SDS011;3966;51.052;13.820;2023-08-17T10:58:07;0.10;;;0.10;;
7841;SDS011;3966;51.052;13.820;2023-08-17T11:00:34;0.20;;;0.20;;
7841;SDS011;3966;51.052;13.820;2023-08-17T11:03:17;0.20;;;0.20;;
7841;SDS011;3966;51.052;13.820;2023-08-17T11:11:04;0.20;;;0.20;;
7841;SDS011;3966;51.052;13.820;2023-08-17T11:13:32;0.20;;;0.20;;
7841;SDS011;3966;51.052;13.820;2023-08-17T11:16:00;0.20;;;0.20;;
7841;SDS011;3966;51.052;13.820;2023-08-17T11:18:26;0.20;;;0.20;;
7841;SDS011;3966;51.052;13.820;2023-08-17T11:20:52;0.20;;;0.20;;
7841;SDS011;3966;51.052;13.820;2023-08-17T11:23:19;0.20;;;0.20;;
7841;SDS011;3966;51.052;13.820;2023-08-17T11:25:45;0.20;;;0.20;;
7841;SDS011;3966;51.052;13.820;2023-08-17T11:28:11;0.20;;;0.20;;
7841;SDS011;3966;51.052;13.820;2023-08-17T11:30:39;0.20;;;0.20;;
7841;SDS011;3966;51.052;13.820;2023-08-17T11:33:06;0.10;;;0.10;;
7841;SDS011;3966;51.052;13.820;2023-08-17T11:35:33;0.20;;;0.20;;
7841;SDS011;3966;51.052;13.820;2023-08-17T11:37:59;0.20;;;0.20;;
7841;SDS011;3966;51.052;13.820;2023-08-17T11:40:25;0.20;;;0.20;;
7841;SDS011;3966;51.052;13.820;2023-08-17T11:42:54;0.20;;;0.20;;
7841;SDS011;3966;51.052;13.820;2023-08-17T11:45:20;0.20;;;0.20;;
7841;SDS011;3966;51.052;13.820;2023-08-17T11:47:46;0.20;;;0.20;;
7841;SDS011;3966;51.052;13.820;2023-08-17T11:50:13;0.20;;;0.20;;
7841;SDS011;3966;51.052;13.820;2023-08-17T11:52:39;0.20;;;0.20;;
7841;SDS011;3966;51.052;13.820;2023-08-17T11:55:05;0.20;;;0.20;;
7841;SDS011;3966;51.052;13.820;2023-08-17T11:57:32;0.20;;;0.20;;
7841;SDS011;3966;51.052;13.820;2023-08-17T11:59:59;0.20;;;0.20;;
7841;SDS011;3966;51.052;13.820;2023-08-17T12:02:25;0.20;;;0.20;;
7841;SDS011;3966;51.052;13.820;2023-08-17T12:04:52;0.20;;;0.20;;
7841;SDS011;3966;51.052;13.820;2023-08-17T12:07:18;0.20;;;0.20;;
7841;SDS011;3966;51.052;13.820;2023-08-17T12:09:45;0.20;;;0.20;;
7841;SDS011;3966;51.052;13.820;2023-08-17T12:12:11;0.20;;;0.20;;
7841;SDS011;3966;51.052;13.820;2023-08-17T12:14:40;0.20;;;0.20;;
7841;SDS011;3966;51.052;13.820;2023-08-17T12:17:07;0.20;;;0.20;;
7841;SDS011;3966;51.052;13.820;2023-08-17T12:19:33;0.20;;;0.20;;
7841;SDS011;3966;51.052;13.820;2023-08-17T12:21:58;0.20;;;0.20;;
7841;SDS011;3966;51.052;13.820;2023-08-17T12:24:24;0.20;;;0.20;;
7841;SDS011;3966;51.052;13.820;2023-08-17T12:26:50;0.20;;;0.20;;
7841;SDS011;3966;51.052;13.820;2023-08-17T12:29:15;0.20;;;0.20;;
7841;SDS011;3966;51.052;13.820;2023-08-17T12:31:41;0.30;;;0.30;;
7841;SDS011;3966;51.052;13.820;2023-08-17T12:34:07;0.22;;;0.22;;
7841;SDS011;3966;51.052;13.820;2023-08-17T12:36:32;0.20;;;0.20;;
7841;SDS011;3966;51.052;13.820;2023-08-17T12:38:58;0.20;;;0.20;;
7841;SDS011;3966;51.052;13.820;2023-08-17T12:41:24;0.20;;;0.20;;
7841;SDS011;3966;51.052;13.820;2023-08-17T12:43:50;0.20;;;0.20;;
7841;SDS011;3966;51.052;13.820;2023-08-17T12:46:18;0.20;;;0.20;;
7841;SDS011;3966;51.052;13.820;2023-08-17T12:48:44;0.20;;;0.20;;
7841;SDS011;3966;51.052;13.820;2023-08-17T12:51:10;0.20;;;0.20;;
7841;SDS011;3966;51.052;13.820;2023-08-17T12:53:36;0.20;;;0.20;;
7841;SDS011;3966;51.052;13.820;2023-08-17T12:56:02;0.20;;;0.20;;
7841;SDS011;3966;51.052;13.820;2023-08-17T12:58:27;0.20;;;0.20;;
7841;SDS011;3966;51.052;13.820;2023-08-17T13:00:53;0.30;;;0.30;;
7841;SDS011;3966;51.052;13.820;2023-08-17T13:03:20;0.30;;;0.30;;
7841;SDS011;3966;51.052;13.820;2023-08-17T13:05:46;0.30;;;0.30;;
7841;SDS011;3966;51.052;13.820;2023-08-17T13:08:12;0.30;;;0.30;;
7841;SDS011;3966;51.052;13.820;2023-08-17T13:10:38;0.30;;;0.30;;
7841;SDS011;3966;51.052;13.820;2023-08-17T13:13:03;0.30;;;0.30;;
7841;SDS011;3966;51.052;13.820;2023-08-17T13:15:31;0.30;;;0.30;;
7841;SDS011;3966;51.052;13.820;2023-08-17T13:17:57;0.30;;;0.30;;
7841;SDS011;3966;51.052;13.820;2023-08-17T13:20:24;0.30;;;0.30;;
7841;SDS011;3966;51.052;13.820;2023-08-17T13:22:50;0.30;;;0.30;;
7841;SDS011;3966;51.052;13.820;2023-08-17T13:25:18;0.30;;;0.30;;
7841;SDS011;3966;51.052;13.820;2023-08-17T13:27:44;0.30;;;0.30;;
7841;SDS011;3966;51.052;13.820;2023-08-17T13:30:10;0.30;;;0.30;;
7841;SDS011;3966;51.052;13.820;2023-08-17T13:32:36;0.30;;;0.30;;
7841;SDS011;3966;51.052;13.820;2023-08-17T13:35:02;0.30;;;0.30;;
7841;SDS011;3966;51.052;13.820;2023-08-17T13:37:28;0.30;;;0.30;;
7841;SDS011;3966;51.052;13.820;2023-08-17T13:39:54;0.30;;;0.30;;
7841;SDS011;3966;51.052;13.820;2023-08-17T13:42:20;0.30;;;0.30;;
7841;SDS011;3966;51.052;13.820;2023-08-17T13:44:45;0.30;;;0.30;;
7841;SDS011;3966;51.052;13.820;2023-08-17T13:47:11;0.30;;;0.30;;
7841;SDS011;3966;51.052;13.820;2023-08-17T13:49:37;0.30;;;0.30;;
7841;SDS011;3966;51.052;13.820;2023-08-17T13:52:03;0.30;;;0.30;;
7841;SDS011;3966;51.052;13.820;2023-08-17T13:54:29;0.30;;;0.30;;
7841;SDS011;3966;51.052;13.820;2023-08-17T13:56:55;0.30;;;0.30;;
7841;SDS011;3966;51.052;13.820;2023-08-17T13:59:20;0.35;;;0.35;;
7841;SDS011;3966;51.052;13.820;2023-08-17T14:01:46;0.20;;;0.20;;
7841;SDS011;3966;51.052;13.820;2023-08-17T14:04:12;0.30;;;0.30;;
7841;SDS011;3966;51.052;13.820;2023-08-17T14:06:39;0.20;;;0.20;;
7841;SDS011;3966;51.052;13.820;2023-08-17T14:09:05;0.20;;;0.20;;
7841;SDS011;3966;51.052;13.820;2023-08-17T14:11:31;0.30;;;0.30;;
7841;SDS011;3966;51.052;13.820;2023-08-17T14:13:57;0.20;;;0.20;;
7841;SDS011;3966;51.052;13.820;2023-08-17T14:16:22;0.20;;;0.20;;
7841;SDS011;3966;51.052;13.820;2023-08-17T14:18:48;0.20;;;0.20;;
7841;SDS011;3966;51.052;13.820;2023-08-17T14:21:14;0.20;;;0.20;;
7841;SDS011;3966;51.052;13.820;2023-08-17T14:23:39;0.20;;;0.20;;
7841;SDS011;3966;51.052;13.820;2023-08-17T14:26:05;0.20;;;0.20;;
7841;SDS011;3966;51.052;13.820;2023-08-17T14:28:31;0.10;;;0.10;;
7841;SDS011;3966;51.052;13.820;2023-08-17T14:30:57;0.20;;;0.20;;
7841;SDS011;3966;51.052;13.820;2023-08-17T14:33:22;0.20;;;0.20;;
7841;SDS011;3966;51.052;13.820;2023-08-17T14:35:48;0.20;;;0.20;;
7841;SDS011;3966;51.052;13.820;2023-08-17T14:38:14;0.17;;;0.17;;
7841;SDS011;3966;51.052;13.820;2023-08-17T14:40:44;0.20;;;0.20;;
7841;SDS011;3966;51.052;13.820;2023-08-17T14:43:11;0.10;;;0.10;;
7841;SDS011;3966;51.052;13.820;2023-08-17T14:45:38;0.20;;;0.20;;
7841;SDS011;3966;51.052;13.820;2023-08-17T14:48:05;0.20;;;0.20;;
7841;SDS011;3966;51.052;13.820;2023-08-17T14:50:32;0.10;;;0.10;;
7841;SDS011;3966;51.052;13.820;2023-08-17T14:52:59;0.20;;;0.20;;
7841;SDS011;3966;51.052;13.820;2023-08-17T14:55:27;0.10;;;0.10;;
7841;SDS011;3966;51.052;13.820;2023-08-17T14:57:53;0.15;;;0.15;;
7841;SDS011;3966;51.052;13.820;2023-08-17T15:00:19;0.10;;;0.10;;
7841;SDS011;3966;51.052;13.820;2023-08-17T15:02:45;0.20;;;0.20;;
7841;SDS011;3966;51.052;13.820;2023-08-17T15:05:11;0.10;;;0.10;;
7841;SDS011;3966;51.052;13.820;2023-08-17T15:07:36;0.10;;;0.10;;
7841;SDS011;3966;51.052;13.820;2023-08-17T15:10:02;0.17;;;0.17;;